Date,TemperatureHighF,TemperatureAvgF,TemperatureLowF,DewpointHighF,DewpointAvgF,DewpointLowF,HumidityHigh,HumidityAvg,HumidityLow,PressureMaxIn,PressureMinIn,WindSpeedMaxMPH,WindSpeedAvgMPH,GustSpeedMaxMPH,PrecipitationSumIn
2013-1-1,18.3,12.7,4.6,13.1,6.0,0.3,86,75,55,30.40,30.22,10,4,10,0.00
2013-1-2,32.0,24.1,16.6,28.4,19.8,12.2,88,83,79,30.27,30.13,12,4,13,0.00
2013-1-3,30.8,25.3,17.9,26.9,20.1,13.9,87,81,70,30.45,30.27,14,3,14,0.00
2013-1-4,36.5,25.9,18.7,24.5,19.9,14.7,89,79,58,30.38,30.20,14,4,15,0.00
2013-1-5,38.9,30.7,21.9,32.2,24.6,16.0,87,78,63,30.22,30.01,23,6,23,0.00
2013-1-6,38.7,27.0,17.3,24.8,19.9,13.8,86,75,55,30.38,30.20,16,4,16,0.00
2013-1-7,45.8,35.6,28.9,30.6,26.2,21.8,85,69,52,30.20,29.98,27,6,27,0.00
2013-1-8,47.9,37.7,28.9,34.2,29.8,24.9,86,74,57,30.15,29.86,24,6,26,0.00
2013-1-9,50.5,39.7,30.2,34.4,30.2,26.1,86,70,50,30.45,30.15,13,2,13,0.00
2013-1-10,40.4,37.5,34.7,37.7,32.5,25.7,97,83,64,30.35,29.72,19,3,19,0.17
2013-1-11,54.2,45.3,31.5,47.6,41.7,26.5,97,88,44,29.73,29.41,29,9,29,0.01
2013-1-12,31.4,21.0,14.4,26.5,12.1,6.7,82,68,58,30.18,29.73,19,5,19,0.00
2013-1-13,21.7,14.4,8.9,7.8,5.4,2.9,78,68,48,30.42,30.16,15,3,16,0.00
2013-1-14,28.3,19.0,9.5,14.3,9.5,4.3,81,67,50,30.56,30.41,10,2,10,0.00
2013-1-15,33.5,25.0,16.3,18.0,13.8,9.6,77,63,46,30.43,30.11,15,4,15,0.00
2013-1-16,50.9,36.3,24.0,35.4,26.3,16.5,82,67,53,30.24,29.98,16,5,17,0.00
2013-1-17,42.0,32.1,23.8,33.2,27.6,21.6,93,83,70,30.49,30.24,13,2,13,0.00
2013-1-18,54.9,42.9,30.0,33.9,30.9,26.4,87,64,43,30.34,29.91,27,8,27,0.00
2013-1-19,53.4,42.4,25.3,32.2,28.7,13.0,77,59,40,30.33,29.87,22,6,22,0.00
2013-1-20,25.1,17.9,13.0,13.6,9.2,5.5,83,69,52,30.49,30.32,13,3,15,0.00
2013-1-21,15.5,11.5,7.8,10.3,-0.7,-7.5,84,58,47,30.54,30.44,17,3,17,0.00
2013-1-22,22.9,14.9,10.6,13.1,8.0,-0.6,85,74,56,30.49,30.33,10,1,10,0.00
2013-1-23,32.0,21.0,11.8,20.6,13.3,7.4,84,72,61,30.51,30.23,20,4,20,0.00
2013-1-24,20.8,14.0,2.6,8.8,2.2,-3.9,75,59,50,30.60,30.26,16,5,16,0.00
2013-1-25,47.2,31.0,17.2,26.6,18.2,8.3,77,60,42,30.29,30.18,13,3,13,0.00
2013-1-26,46.7,30.7,15.8,27.4,20.5,11.0,86,67,45,30.30,30.06,18,6,18,0.00
2013-1-27,48.6,39.7,34.7,47.7,37.3,24.3,97,92,57,30.07,29.70,19,6,19,0.32
2013-1-28,59.2,42.0,33.3,56.4,41.2,32.5,98,97,90,29.88,29.53,17,3,19,0.01
2013-1-29,59.2,35.6,31.0,56.1,33.7,29.5,96,93,89,29.69,29.51,22,6,22,0.00
2013-1-30,31.0,22.8,15.1,29.6,18.8,11.1,96,85,68,29.99,29.59,24,6,24,0.00
2013-1-31,16.7,8.8,0.4,11.9,1.1,-5.9,82,71,60,30.52,29.99,17,5,21,0.00
2013-2-1,25.7,12.2,-3.3,18.7,6.0,-7.7,85,76,69,30.53,30.15,23,6,26,0.00
2013-2-2,37.2,28.9,24.5,30.9,23.7,18.2,90,80,74,30.26,30.09,14,3,14,0.00
2013-2-3,40.5,33.8,24.1,30.4,23.7,16.3,80,66,55,30.26,29.81,19,5,19,0.00
2013-2-4,39.4,29.1,23.3,29.6,23.6,20.5,89,80,64,30.04,29.78,24,4,24,0.00
2013-2-5,49.5,36.9,26.1,34.3,28.1,22.9,90,72,45,30.10,29.88,20,4,20,0.00
2013-2-6,55.2,41.6,30.3,40.5,33.4,26.3,87,73,54,30.10,29.85,22,4,22,0.01
2013-2-7,45.1,36.1,29.7,43.2,32.1,24.7,94,85,77,30.25,29.85,20,5,20,0.01
2013-2-8,32.6,28.3,25.4,28.0,25.1,22.9,93,88,80,30.39,30.21,19,4,20,0.00
2013-2-9,47.9,36.3,28.3,37.9,31.6,26.4,93,84,67,30.24,29.71,25,10,25,0.03
2013-2-10,46.8,38.0,32.0,43.1,33.6,23.6,96,84,69,29.82,29.30,27,12,32,0.02
2013-2-11,38.2,31.9,25.9,27.1,24.3,22.0,86,74,62,30.19,29.82,25,5,25,0.00
2013-2-12,47.9,34.5,23.3,28.5,23.3,20.2,90,66,38,30.19,29.93,19,3,19,0.00
2013-2-13,52.9,39.4,27.4,31.3,26.7,22.0,82,62,39,29.94,29.75,18,4,18,0.00
2013-2-14,44.7,38.4,26.2,33.1,28.0,14.1,91,67,45,30.26,29.79,23,6,23,0.00
2013-2-15,32.2,24.0,16.0,22.3,16.1,10.9,90,72,51,30.41,30.26,16,4,17,0.00
2013-2-16,31.4,24.8,14.1,24.7,18.9,11.7,91,79,60,30.38,30.06,15,4,15,0.00
2013-2-17,55.3,37.8,23.2,33.8,27.3,19.4,89,68,43,30.07,29.59,22,6,22,0.00
2013-2-18,44.2,33.3,21.9,33.4,26.0,15.1,92,75,64,30.09,29.53,26,6,26,0.01
2013-2-19,26.5,18.0,10.3,16.7,5.8,0.7,78,60,34,30.43,30.09,21,5,21,0.00
2013-2-20,25.3,15.8,4.9,9.8,4.8,-0.5,79,62,45,30.46,30.28,16,5,16,0.00
2013-2-21,22.5,21.6,21.0,20.8,15.8,9.2,93,79,56,30.31,29.85,24,6,24,0.00
2013-2-22,24.3,19.9,13.9,20.9,16.4,10.6,93,86,75,30.09,29.85,16,3,17,0.05
2013-2-23,34.3,21.5,9.2,26.7,16.8,6.6,90,82,71,30.08,29.92,14,4,14,0.02
2013-2-24,39.4,30.6,19.8,29.2,24.3,17.1,91,78,63,30.08,29.96,9,2,9,0.02
2013-2-25,35.9,32.4,29.7,31.5,28.9,27.1,93,87,78,30.08,29.89,23,7,23,0.00
2013-2-26,30.2,29.3,28.5,28.6,27.0,25.6,94,91,88,29.92,29.81,20,8,22,0.01
2013-2-27,38.1,30.5,25.7,26.9,24.4,21.9,90,78,59,30.10,29.89,20,7,20,0.01
2013-2-28,31.9,28.5,26.3,25.4,23.4,21.3,84,81,75,30.25,30.10,12,5,16,0.00
2013-3-1,28.8,26.1,23.5,22.0,20.0,16.5,86,77,66,30.40,30.24,16,6,19,0.00
2013-3-2,34.7,27.0,20.7,26.1,19.3,15.2,83,73,52,30.40,30.16,12,3,12,0.00
2013-3-3,40.5,32.3,25.7,30.8,25.7,21.4,88,77,66,30.16,29.77,19,6,19,0.00
2013-3-4,45.4,36.5,31.2,33.7,29.2,25.2,85,75,61,30.03,29.69,18,5,18,0.00
2013-3-5,34.2,29.1,24.6,29.5,20.5,16.4,83,70,62,30.24,30.01,30,8,30,0.00
2013-3-6,38.7,31.1,23.0,25.1,21.6,17.5,87,68,52,30.47,30.30,11,3,11,0.00
2013-3-7,47.7,32.9,21.4,31.1,25.0,18.2,89,74,50,30.33,30.15,20,6,20,0.00
2013-3-8,54.9,41.2,30.1,39.6,32.7,25.7,85,73,53,30.23,29.93,23,7,23,0.02
2013-3-9,53.4,46.8,39.7,50.2,43.8,38.1,95,89,84,29.93,29.55,26,7,26,0.05
2013-3-10,39.7,30.5,25.5,38.1,28.2,21.9,94,91,86,29.93,29.63,30,9,30,0.02
2013-3-11,31.7,25.7,22.0,23.6,20.0,17.5,90,79,64,30.04,29.89,17,4,17,0.00
2013-3-12,35.9,30.2,23.8,25.8,22.4,17.8,88,73,63,30.37,30.04,22,5,24,0.01
2013-3-13,39.3,29.1,20.1,23.7,19.5,14.9,86,69,39,30.50,30.31,10,2,10,0.00
2013-3-14,61.8,44.4,31.1,42.2,32.7,23.4,84,65,44,30.31,30.07,18,4,18,0.00
2013-3-15,66.2,50.1,35.1,45.9,40.1,32.1,92,71,45,30.07,29.67,19,4,19,0.00
2013-3-16,38.7,33.4,28.8,36.6,28.9,23.6,93,83,73,30.20,29.80,23,7,23,0.00
2013-3-17,45.2,33.1,23.9,33.0,26.1,20.2,87,76,61,30.18,29.79,20,6,21,0.00
2013-3-18,39.2,34.4,28.5,33.3,24.5,16.0,96,69,43,30.07,29.76,27,5,31,0.15
2013-3-19,48.0,33.6,21.9,32.8,19.7,15.7,79,58,36,30.33,30.06,16,4,17,0.00
2013-3-20,34.6,25.4,16.8,18.6,9.6,3.9,73,52,33,30.43,30.16,16,4,18,0.00
2013-3-21,34.3,26.5,19.6,18.2,13.7,9.5,77,59,36,30.16,29.95,13,3,13,0.00
2013-3-22,35.8,31.4,26.6,21.6,18.9,16.1,74,60,48,30.07,29.99,11,2,11,0.00
2013-3-23,37.1,31.6,27.3,28.7,25.1,21.1,93,77,58,30.13,30.03,20,5,20,0.00
2013-3-24,30.0,27.0,24.0,25.6,22.1,19.4,92,82,70,30.11,30.03,22,7,22,0.00
2013-3-25,30.6,27.2,24.5,24.6,22.5,20.4,91,82,69,30.38,30.10,19,5,19,0.01
2013-3-26,40.6,28.4,19.6,23.8,19.8,15.6,85,71,47,30.43,30.28,13,3,13,0.00
2013-3-27,50.3,36.3,24.2,33.5,27.2,20.6,88,71,49,30.33,30.21,17,4,17,0.00
2013-3-28,60.1,44.7,30.0,35.0,31.7,26.7,88,63,36,30.28,30.15,11,2,11,0.00
2013-3-29,67.3,50.9,34.6,40.8,34.1,31.2,89,57,27,30.23,30.04,19,5,21,0.00
2013-3-30,67.3,54.8,45.8,54.5,43.1,34.0,93,67,34,30.08,29.84,20,4,21,0.57
2013-3-31,57.4,49.3,33.5,41.8,34.1,23.1,92,60,27,30.11,29.91,24,6,28,0.04
2013-4-1,40.4,31.7,23.6,32.2,21.2,16.3,93,67,39,30.34,30.08,19,5,20,0.01
2013-4-2,51.1,38.5,26.2,26.1,21.8,18.2,80,53,33,30.38,30.26,12,2,12,0.00
2013-4-3,52.0,40.3,28.0,28.1,24.8,21.8,80,56,36,30.39,30.24,16,3,16,0.00
2013-4-4,65.0,48.3,33.3,39.2,32.2,24.8,75,55,37,30.26,30.03,17,3,17,0.00
2013-4-5,68.2,51.7,34.1,41.9,35.6,29.3,83,57,36,30.17,29.72,27,9,27,0.00
2013-4-6,69.4,60.3,53.3,48.8,42.6,39.1,69,53,34,29.73,29.57,24,8,26,0.00
2013-4-7,75.0,65.0,46.9,52.6,44.3,38.3,93,50,29,29.82,29.58,33,8,33,0.23
2013-4-8,68.2,58.8,49.7,61.9,55.2,46.9,94,88,80,29.68,29.58,14,3,14,0.03
2013-4-9,65.5,52.4,37.6,61.1,50.0,35.7,95,92,82,29.93,29.56,25,7,25,0.13
2013-4-10,39.6,37.6,33.5,38.5,36.3,32.2,96,95,93,29.94,29.74,17,5,18,0.47
2013-4-11,36.3,33.2,30.9,32.6,30.0,27.9,96,88,80,29.79,29.68,17,5,17,0.00
2013-4-12,44.5,36.3,32.4,32.7,29.6,27.7,88,77,59,30.04,29.75,18,5,19,0.00
2013-4-13,54.1,40.7,27.8,40.0,32.7,25.2,90,74,57,30.06,29.67,22,5,22,0.00
2013-4-14,69.8,55.8,45.9,54.5,42.5,31.2,83,63,35,29.67,29.34,33,8,36,0.01
2013-4-15,48.5,41.9,37.6,32.1,28.8,24.4,70,60,51,30.08,29.66,15,4,18,0.00
2013-4-16,49.0,41.4,32.9,34.9,31.0,28.3,85,67,48,30.25,30.05,18,5,18,0.00
2013-4-17,45.8,42.5,38.8,42.5,39.3,34.6,96,89,65,30.15,29.63,24,5,26,1.97
2013-4-18,38.7,35.2,31.7,37.0,32.3,27.3,95,89,79,29.92,29.64,24,8,24,0.44
2013-4-19,46.4,34.7,29.2,28.6,24.8,21.1,87,68,39,30.12,29.88,21,6,22,0.00
2013-4-20,48.9,39.2,27.6,31.8,25.6,21.5,79,59,42,30.29,30.13,21,4,21,0.00
2013-4-21,66.7,54.7,42.7,50.1,40.2,30.1,91,59,40,30.19,30.00,35,11,35,0.13
2013-4-22,60.4,48.5,34.6,50.6,44.5,31.1,95,87,61,30.16,29.90,22,4,22,0.58
2013-4-23,40.7,34.5,30.3,31.4,27.3,24.5,88,75,61,30.22,30.11,25,7,25,0.00
2013-4-24,57.3,40.9,26.7,36.9,28.2,22.1,84,63,32,30.24,30.06,22,5,22,0.00
2013-4-25,67.3,51.6,35.4,41.1,34.5,29.6,82,56,29,30.28,30.04,28,6,28,0.00
2013-4-26,65.3,56.3,48.2,52.1,45.0,37.3,90,67,53,30.18,30.04,26,10,26,0.00
2013-4-27,64.7,54.5,49.3,51.4,47.7,45.8,92,79,58,30.18,29.94,10,2,10,0.00
2013-4-28,77.8,61.9,46.3,56.1,49.9,44.1,94,69,39,29.95,29.67,24,8,24,0.00
2013-4-29,82.5,67.7,55.4,61.0,56.2,52.7,92,70,39,29.72,29.47,17,4,17,0.00
2013-4-30,81.1,72.6,57.9,61.0,53.7,46.1,70,52,43,29.77,29.52,24,8,24,0.00
2013-5-1,58.4,45.4,35.1,48.3,39.2,32.6,93,79,66,30.36,29.77,32,12,32,0.72
2013-5-2,44.4,38.0,32.6,35.0,32.0,27.5,95,80,58,30.52,30.32,31,8,32,0.87
2013-5-3,42.2,38.7,34.5,34.5,30.7,28.0,88,73,64,30.38,29.99,22,7,23,0.00
2013-5-4,45.4,39.7,34.7,42.2,37.2,32.4,94,91,85,30.12,29.94,28,9,28,0.04
2013-5-5,52.3,45.0,42.0,48.7,42.8,40.6,95,92,83,30.16,30.09,13,3,13,0.02
2013-5-6,66.2,55.6,48.9,54.2,50.4,47.2,94,84,63,30.13,30.01,10,2,10,0.00
2013-5-7,72.3,61.3,47.5,57.0,51.9,45.5,96,74,45,30.06,29.91,14,2,14,0.00
2013-5-8,72.2,62.6,56.9,59.5,54.9,50.9,90,77,58,29.94,29.83,13,2,13,0.10
2013-5-9,69.2,61.5,56.3,58.8,56.4,53.0,95,84,65,29.94,29.81,17,4,17,0.05
2013-5-10,68.5,58.3,49.4,53.8,48.2,44.3,93,71,45,30.05,29.92,21,4,21,0.01
2013-5-11,60.9,55.5,47.6,46.5,32.1,21.9,74,43,25,30.23,29.99,28,6,28,0.00
2013-5-12,66.0,53.9,40.6,32.5,25.8,21.1,55,35,18,30.27,30.10,9,1,10,0.00
2013-5-13,80.1,64.8,47.4,54.2,43.8,27.8,72,48,29,30.11,29.81,23,6,23,0.00
2013-5-14,95.8,80.0,61.6,61.9,54.7,46.5,79,46,20,29.81,29.59,30,7,30,0.00
2013-5-15,82.7,74.7,63.9,54.5,50.5,43.9,68,43,28,29.82,29.70,15,3,17,0.00
2013-5-16,82.9,73.1,62.5,65.2,60.4,50.7,91,66,47,29.81,29.69,19,4,19,0.00
2013-5-17,83.8,72.6,61.8,64.7,60.7,58.2,90,68,46,29.85,29.76,16,3,16,0.00
2013-5-18,83.8,73.7,59.9,68.0,62.9,57.1,91,70,51,29.85,29.63,20,5,21,0.00
2013-5-19,81.4,66.5,59.3,68.6,61.1,56.3,94,84,52,29.73,29.38,43,5,43,1.00
2013-5-20,73.0,65.3,57.5,61.9,58.0,51.6,96,78,61,29.65,29.49,22,6,22,0.00
2013-5-21,65.0,60.7,55.0,55.3,50.7,46.8,88,71,53,29.69,29.57,18,4,18,0.00
2013-5-22,60.9,56.0,51.9,52.2,49.4,48.0,90,79,69,29.94,29.68,15,3,15,0.00
2013-5-23,71.9,60.4,52.0,53.3,48.6,44.3,89,68,40,30.20,29.94,19,3,19,0.00
2013-5-24,72.9,62.6,49.1,53.5,48.4,43.5,82,61,43,30.27,30.02,20,6,25,0.00
2013-5-25,78.8,67.7,58.9,65.9,58.9,46.5,94,74,56,30.11,29.91,22,4,22,0.15
2013-5-26,84.2,73.1,63.2,70.9,65.4,60.1,93,78,63,29.97,29.77,23,6,23,0.00
2013-5-27,75.8,66.8,60.0,66.1,62.0,57.8,94,85,67,29.85,29.52,25,5,25,2.14
2013-5-28,79.5,68.3,61.8,70.0,63.9,60.2,96,86,69,29.68,29.50,14,2,14,0.00
2013-5-29,74.4,66.8,62.5,67.8,63.2,59.7,95,88,80,29.70,29.52,29,5,29,1.12
2013-5-30,72.0,65.0,59.4,64.0,60.6,54.3,96,86,70,29.61,29.50,32,6,32,0.38
2013-5-31,78.5,68.8,58.4,64.2,55.5,48.7,96,65,38,29.67,29.56,18,3,18,0.00
2013-6-1,65.8,59.2,54.6,55.4,51.2,47.8,84,75,54,29.98,29.61,21,3,22,0.00
2013-6-2,67.1,57.7,51.9,49.2,47.3,44.8,87,70,48,30.10,29.98,12,2,12,0.00
2013-6-3,73.3,58.5,50.8,55.2,49.2,46.2,87,73,43,30.03,29.81,20,4,24,0.00
2013-6-4,74.6,66.4,60.0,64.9,59.6,54.3,92,79,71,29.92,29.82,15,3,16,0.14
2013-6-5,69.8,64.5,57.7,64.1,57.0,50.5,96,78,56,29.98,29.90,19,3,19,0.23
2013-6-6,72.8,64.1,54.9,57.5,52.4,49.6,86,67,48,29.95,29.90,14,2,14,0.00
2013-6-7,73.2,63.5,54.0,55.3,52.0,48.8,89,68,43,30.00,29.87,9,2,10,0.00
2013-6-8,73.9,64.1,55.1,63.3,56.7,49.9,95,77,59,29.88,29.64,25,6,25,1.09
2013-6-9,70.7,63.5,60.0,61.4,59.2,57.2,95,86,70,29.78,29.69,17,3,17,0.10
2013-6-10,78.8,65.9,57.8,66.4,60.5,55.5,96,84,61,29.87,29.74,11,2,11,0.00
2013-6-11,87.2,77.0,67.4,69.2,65.8,62.4,87,70,47,29.78,29.63,29,5,32,0.00
2013-6-12,90.8,79.2,63.7,72.9,66.5,54.8,87,66,52,29.94,29.60,19,4,19,0.00
2013-6-13,81.8,68.3,59.4,62.8,57.2,52.2,84,69,37,30.06,29.89,12,2,13,0.03
2013-6-14,86.6,73.6,63.1,70.9,64.7,57.7,90,75,58,29.98,29.74,26,6,26,0.07
2013-6-15,82.1,72.9,68.0,70.7,66.4,64.2,93,81,58,29.92,29.78,24,3,24,0.12
2013-6-16,86.0,74.8,65.6,70.7,66.4,63.3,97,77,50,29.93,29.86,10,2,10,0.00
2013-6-17,88.9,78.1,67.7,70.1,62.5,53.8,93,63,33,29.93,29.86,12,1,12,0.00
2013-6-18,85.0,73.9,65.6,62.8,56.8,49.8,79,57,32,30.01,29.91,10,1,11,0.00
2013-6-19,84.3,75.3,64.9,67.4,63.4,59.3,89,68,47,29.96,29.85,23,5,23,0.00
2013-6-20,88.3,79.5,68.6,74.1,70.0,65.2,90,74,59,29.91,29.76,22,9,27,0.00
2013-6-21,92.5,83.7,76.9,77.0,72.5,69.9,83,70,55,29.83,29.72,26,11,26,0.00
2013-6-22,90.2,82.6,74.2,73.4,69.3,64.2,79,65,47,29.89,29.72,26,8,27,0.00
2013-6-23,80.7,74.7,63.5,73.6,68.6,61.4,93,82,70,29.89,29.70,28,6,30,0.63
2013-6-24,80.8,75.3,71.6,73.6,70.6,67.6,94,86,70,29.89,29.70,19,4,22,0.34
2013-6-25,86.7,79.4,71.7,75.8,70.9,67.2,91,76,63,29.75,29.60,22,5,22,0.01
2013-6-26,91.8,82.3,75.0,73.1,69.6,63.8,92,68,42,29.82,29.58,12,2,12,0.00
2013-6-27,80.0,74.2,70.2,71.2,67.5,63.2,90,80,59,29.93,29.81,16,1,16,0.09
2013-6-28,85.3,77.9,70.7,68.3,60.9,55.1,82,58,38,29.92,29.81,20,3,20,0.00
2013-6-29,79.7,71.8,65.2,61.5,57.8,55.7,73,62,47,29.89,29.80,23,4,29,0.00
2013-6-30,78.9,69.4,60.5,60.5,55.0,50.7,83,62,41,30.05,29.89,13,3,16,0.00
2013-7-1,82.5,71.4,59.6,57.4,52.8,49.5,71,54,33,30.13,30.04,13,3,13,0.00
2013-7-2,83.5,72.3,60.6,61.8,56.1,51.1,76,58,35,30.11,29.98,7,1,7,0.00
2013-7-3,84.8,71.6,61.9,63.2,58.8,54.1,86,66,38,30.01,29.90,10,2,11,0.00
2013-7-4,84.4,72.8,60.2,62.9,57.8,54.2,85,61,36,29.97,29.85,19,5,19,0.00
2013-7-5,86.2,76.1,64.5,67.7,62.6,57.1,80,64,48,29.89,29.78,22,6,22,0.00
2013-7-6,86.2,76.6,67.7,69.5,65.0,61.0,79,68,54,29.84,29.76,22,7,23,0.00
2013-7-7,91.2,81.6,72.5,73.1,67.7,63.1,78,63,50,29.84,29.75,23,6,23,0.01
2013-7-8,87.0,81.6,76.9,76.0,71.1,66.7,82,71,61,29.90,29.83,11,2,12,0.00
2013-7-9,93.8,83.1,74.6,79.2,74.1,68.6,90,75,58,29.88,29.79,19,4,19,0.36
2013-7-10,85.6,78.0,69.6,74.4,67.0,63.5,84,70,51,30.01,29.85,14,2,14,0.00
2013-7-11,84.6,74.3,62.9,65.0,61.7,58.0,85,66,47,30.05,29.91,15,3,17,0.00
2013-7-12,87.2,76.3,65.0,71.5,64.8,59.0,83,68,56,29.97,29.87,21,6,22,0.00
2013-7-13,84.3,76.4,70.6,74.2,66.5,60.7,88,71,62,29.94,29.87,18,6,18,0.27
2013-7-14,84.5,76.2,67.5,65.9,63.5,60.3,83,66,48,30.09,29.92,18,4,18,0.00
2013-7-15,86.5,77.2,66.4,71.9,67.2,61.6,85,72,55,30.14,30.05,14,2,16,0.00
2013-7-16,88.7,79.9,68.4,73.3,69.3,64.9,93,71,53,30.20,30.11,10,2,10,0.00
2013-7-17,90.5,81.5,72.3,73.3,70.8,68.6,89,72,53,30.23,30.13,13,2,14,0.00
2013-7-18,91.6,86.4,77.3,72.7,69.7,67.5,77,58,46,30.07,29.87,20,5,20,0.00
2013-7-19,93.0,83.5,75.6,75.0,69.1,64.3,72,62,50,29.88,29.78,9,2,10,0.00
2013-7-20,85.4,76.7,68.5,69.3,65.8,61.7,84,70,51,29.91,29.78,10,2,11,0.00
2013-7-21,87.0,77.5,68.1,73.3,69.9,65.9,94,78,62,29.86,29.71,12,2,12,0.00
2013-7-22,90.5,80.9,70.9,78.3,73.3,68.0,92,79,58,29.76,29.65,14,3,17,0.00
2013-7-23,79.3,71.6,63.8,69.1,64.7,60.5,93,79,63,29.96,29.74,19,3,19,0.90
2013-7-24,82.6,72.0,59.4,65.5,61.8,56.5,91,72,51,30.02,29.93,10,1,11,0.00
2013-7-25,78.5,71.6,67.4,70.6,64.7,60.6,90,79,67,30.01,29.93,14,3,16,0.15
2013-7-26,78.5,71.0,61.8,68.7,60.9,52.1,95,73,42,30.05,29.91,20,3,20,0.00
2013-7-27,73.3,65.0,56.8,54.8,50.7,45.4,84,62,38,30.08,29.96,15,2,15,0.00
2013-7-28,71.5,59.9,54.3,56.0,49.6,46.5,79,69,56,30.04,29.98,4,0,4,0.00
2013-7-29,65.7,62.4,58.9,63.5,58.3,51.3,96,87,70,30.03,29.96,13,2,13,0.21
2013-7-30,75.3,68.8,64.5,68.5,65.6,63.5,97,90,77,30.05,29.97,10,2,10,0.02
2013-7-31,85.0,73.5,62.0,68.9,65.9,60.5,97,78,55,30.10,29.99,6,1,7,0.00
2013-8-1,85.2,74.5,64.2,71.7,66.3,59.9,96,77,45,30.04,29.77,36,3,36,0.25
2013-8-2,84.3,74.4,65.6,70.1,66.4,60.4,92,77,59,29.95,29.78,26,3,27,0.00
2013-8-3,81.0,70.6,62.1,63.7,60.9,58.0,88,73,51,30.12,29.94,11,3,11,0.00
2013-8-4,75.1,68.5,60.7,67.2,61.4,55.5,88,78,63,30.12,29.98,15,3,15,0.00
2013-8-5,83.8,75.2,67.7,74.4,70.3,65.4,95,85,71,30.00,29.77,14,3,14,0.00
2013-8-6,87.3,77.9,67.8,76.9,71.7,66.4,97,82,65,29.85,29.72,17,2,17,0.00
2013-8-7,85.2,76.7,70.4,74.2,66.6,58.5,95,73,43,29.93,29.74,14,3,14,0.00
2013-8-8,79.0,70.0,62.9,66.9,63.7,60.1,92,81,59,29.97,29.89,10,1,10,0.00
2013-8-9,82.8,72.7,64.6,68.8,64.4,58.7,92,76,56,30.09,29.96,12,2,12,0.00
2013-8-10,81.3,70.9,58.8,64.1,60.2,55.8,90,70,48,30.16,30.03,15,3,15,0.00
2013-8-11,85.2,75.1,63.3,70.9,65.3,59.5,88,72,55,30.08,29.93,16,3,16,0.00
2013-8-12,84.7,76.1,69.1,72.5,66.7,61.6,93,74,49,30.00,29.92,13,2,13,0.01
2013-8-13,80.2,70.5,61.3,61.7,59.1,56.3,88,68,48,30.11,30.00,11,2,11,0.00
2013-8-14,76.0,67.0,56.7,61.9,57.8,53.6,90,73,52,30.16,30.03,13,2,13,0.01
2013-8-15,65.8,62.5,58.8,61.1,58.8,57.1,95,88,78,30.07,30.00,15,3,17,0.79
2013-8-16,73.7,65.6,60.3,60.5,58.7,57.1,92,79,58,30.15,30.06,12,2,12,0.00
2013-8-17,76.9,68.4,58.6,61.4,58.5,56.2,95,72,51,30.17,30.06,17,2,17,0.00
2013-8-18,78.0,68.2,56.4,64.5,60.2,54.9,96,77,57,30.12,30.01,18,3,18,0.00
2013-8-19,82.5,72.6,63.7,70.3,65.5,60.3,91,79,64,30.05,29.89,18,5,18,0.00
2013-8-20,86.8,77.2,67.8,72.3,68.7,64.9,91,76,59,29.94,29.86,22,6,22,0.00
2013-8-21,88.8,78.7,70.9,75.0,69.8,65.7,86,75,57,29.95,29.88,17,5,17,0.00
2013-8-22,84.3,76.2,70.6,72.8,69.7,67.2,90,81,61,30.03,29.91,8,2,11,0.00
2013-8-23,87.6,77.2,67.7,74.5,69.8,65.7,95,79,55,30.02,29.92,16,3,16,0.00
2013-8-24,88.0,79.0,71.6,75.5,71.0,67.7,89,77,63,30.02,29.95,24,7,24,0.00
2013-8-25,91.2,81.3,71.4,76.9,72.5,68.5,91,76,58,30.08,29.98,19,7,19,0.00
2013-8-26,93.2,82.8,74.8,75.2,72.1,69.6,85,71,52,30.03,29.89,19,6,19,0.00
2013-8-27,93.8,83.0,73.8,73.3,69.8,65.2,82,66,49,29.91,29.82,17,4,17,0.00
2013-8-28,92.3,81.3,72.2,72.8,67.5,61.3,78,64,37,29.93,29.86,13,3,13,0.00
2013-8-29,93.3,82.1,72.2,76.0,72.4,69.0,91,74,50,29.94,29.83,14,4,15,0.00
2013-8-30,99.2,84.9,74.3,77.0,70.6,67.2,80,64,38,29.84,29.72,10,2,10,0.00
2013-8-31,86.2,80.8,74.5,74.6,72.2,67.5,88,76,54,29.80,29.71,5,1,7,0.00
2013-9-1,81.5,74.2,67.2,70.8,64.1,58.3,94,73,46,29.93,29.68,22,3,22,0.41
2013-9-2,80.6,68.4,58.9,61.2,58.0,47.1,93,72,32,30.05,29.93,12,2,12,0.00
2013-9-3,81.5,69.0,54.5,64.2,58.7,52.9,96,72,45,30.07,29.98,11,2,11,0.00
2013-9-4,83.8,74.2,66.0,67.2,63.0,59.9,83,69,50,30.12,29.99,10,2,10,0.00
2013-9-5,83.8,72.9,66.3,67.9,64.8,62.3,93,77,55,30.15,30.04,12,1,12,0.01
2013-9-6,87.3,76.7,65.0,71.2,66.5,61.3,88,72,57,30.06,29.86,22,5,22,0.00
2013-9-7,95.3,80.3,70.3,73.9,69.8,65.7,88,72,45,29.87,29.75,16,4,16,0.00
2013-9-8,90.9,80.0,70.0,75.4,72.0,67.6,93,78,53,29.84,29.71,10,2,10,0.00
2013-9-9,95.3,84.5,77.0,70.6,64.7,59.2,78,53,35,29.79,29.72,21,5,21,0.00
2013-9-10,80.8,78.5,77.1,60.8,60.1,59.3,57,53,49,29.82,29.79,13,5,13,0.00
2013-9-11,85.2,76.5,70.0,73.7,70.3,67.0,92,82,61,30.06,29.98,10,1,10,0.31
2013-9-12,79.3,71.1,61.3,68.1,58.5,49.6,95,68,39,30.15,30.04,15,3,15,0.08
2013-9-13,74.5,64.1,54.0,54.9,51.0,48.7,83,64,42,30.19,30.03,9,2,9,0.00
2013-9-14,76.0,64.2,50.5,56.5,51.7,45.2,84,65,45,30.06,29.85,20,5,20,0.00
2013-9-15,69.6,64.8,61.8,63.5,58.1,53.9,93,80,58,30.18,29.81,17,4,18,0.10
2013-9-16,64.8,59.7,54.0,55.6,53.7,51.1,91,81,70,30.29,30.16,17,3,17,0.00
2013-9-17,76.6,64.0,56.7,69.6,61.4,55.1,97,91,78,30.17,29.86,21,5,21,0.25
2013-9-18,90.0,77.4,66.9,71.9,67.9,64.9,94,74,48,29.88,29.65,26,9,26,0.00
2013-9-19,85.8,72.7,60.6,70.4,65.1,52.5,94,78,58,29.92,29.66,21,4,21,0.68
2013-9-20,68.9,60.6,52.5,53.0,48.9,45.0,84,67,45,30.04,29.92,12,2,12,0.00
2013-9-21,73.2,61.0,47.8,54.3,48.2,44.3,88,65,42,30.02,29.85,13,2,14,0.00
2013-9-27,86.3,79.9,70.9,63.0,61.6,58.8,72,55,40,29.82,29.72,31,12,31,0.00
2013-9-28,73.5,63.6,54.0,64.2,53.6,44.8,94,71,47,30.03,29.62,28,5,28,0.20
2013-9-29,75.0,61.5,48.3,48.4,45.2,42.3,85,58,33,30.06,29.87,21,4,21,0.00
2013-9-30,79.2,64.4,51.8,54.8,50.8,47.8,86,64,37,29.90,29.70,16,6,23,0.00
2013-10-1,80.5,69.1,56.0,58.4,55.2,51.1,87,63,45,29.90,29.75,7,2,10,0.00
2013-10-2,84.4,71.1,59.5,67.6,61.7,56.3,94,74,48,29.92,29.78,22,4,22,0.00
2013-10-3,78.7,70.6,61.0,68.9,64.4,58.3,94,81,66,29.83,29.66,22,4,26,0.49
2013-10-4,83.7,69.1,56.2,72.3,62.8,44.1,96,82,58,29.88,29.59,24,5,24,0.52
2013-10-5,56.2,48.4,42.1,44.8,36.2,33.6,78,63,49,29.93,29.82,17,4,18,0.01
2013-10-6,48.8,45.9,43.0,46.0,42.3,36.0,93,87,73,29.99,29.77,13,2,13,0.10
2013-10-7,73.0,57.3,43.7,47.3,41.3,37.9,85,59,30,30.09,29.99,12,3,12,0.00
2013-10-8,75.7,62.3,49.9,48.1,45.4,42.5,76,56,33,30.00,29.89,26,8,26,0.00
2013-10-9,76.3,62.9,50.4,53.4,50.0,46.9,88,65,43,30.00,29.92,22,7,23,0.00
2013-10-10,78.3,64.7,51.4,57.4,52.3,46.8,85,66,42,29.98,29.78,25,6,25,0.00
2013-10-11,78.4,65.6,55.0,61.4,53.0,41.0,86,66,34,29.86,29.62,23,7,26,0.00
2013-10-12,66.1,56.2,46.0,44.1,38.1,32.2,80,54,30,30.26,29.86,10,1,10,0.00
2013-10-13,68.5,55.4,43.0,39.7,35.6,32.7,69,49,29,30.40,30.25,11,2,11,0.00
2013-10-14,65.5,54.2,48.2,56.0,43.3,35.3,93,68,49,30.28,29.74,29,6,29,0.23
2013-10-16,54.7,50.3,45.2,41.0,38.1,35.2,78,63,51,30.07,29.96,10,1,10,0.00
2013-10-17,62.0,49.1,39.8,43.5,38.5,35.0,85,68,41,30.03,29.87,14,2,15,0.00
2013-10-18,48.5,41.7,36.2,37.2,33.8,29.9,89,74,54,30.13,30.03,8,2,8,0.00
2013-10-19,37.5,35.2,33.9,33.6,32.7,31.6,92,90,83,30.03,29.95,7,3,7,0.00
2013-10-29,55.9,53.4,47.4,55.1,52.2,44.9,97,96,91,30.05,29.93,8,2,12,0.11
2013-10-30,60.2,54.1,43.8,59.3,53.2,42.7,98,97,95,29.95,29.70,11,1,11,0.28
2013-10-31,55.3,45.8,40.0,47.0,41.3,37.6,96,85,65,29.74,29.51,8,1,12,0.00
2013-11-1,58.7,47.3,40.3,44.3,39.3,36.2,85,74,47,29.97,29.59,18,2,18,0.06
2013-11-2,56.2,46.1,37.2,40.2,35.8,32.9,87,69,44,30.19,29.97,12,2,12,0.00
2013-11-3,56.6,48.4,37.1,39.7,35.6,31.7,82,62,45,30.11,29.78,34,11,34,0.00
2013-11-4,57.4,51.3,45.3,46.4,41.7,37.8,79,70,56,30.11,29.80,20,6,21,0.00
2013-11-5,56.6,47.1,35.6,55.5,44.4,34.0,97,90,77,30.11,29.76,19,4,21,0.65
2013-11-6,43.6,37.5,33.3,35.7,33.1,30.4,94,85,72,30.30,29.99,16,2,16,0.00
2013-11-7,49.1,39.5,31.8,32.7,27.5,21.3,90,65,34,30.41,30.29,14,2,14,0.00
2013-11-8,66.1,49.8,33.7,38.1,32.7,24.0,73,54,28,30.32,29.75,37,9,40,0.00
2013-11-9,60.4,51.2,43.6,37.6,35.0,32.1,69,55,37,30.32,29.91,12,2,14,0.00
2013-11-10,52.3,44.1,32.3,38.7,31.3,27.3,83,62,41,30.42,30.17,16,4,16,0.00
2013-11-11,51.3,35.6,18.8,44.3,28.3,11.0,91,75,60,30.77,30.10,27,8,27,0.00
2013-11-12,31.8,21.9,12.3,14.6,9.7,6.7,82,61,36,30.95,30.64,15,3,15,0.00
2013-11-13,50.8,35.8,23.6,27.4,19.1,9.5,62,51,38,30.68,30.13,23,8,24,0.00
2013-11-21,29.6,25.5,22.3,27.0,22.2,19.5,90,87,83,30.56,30.25,14,6,20,0.00
2013-11-22,25.6,21.3,16.2,19.2,14.4,11.8,88,75,58,30.75,30.56,12,2,12,0.00
2013-11-23,23.6,17.6,13.0,14.5,8.3,4.2,80,66,53,30.93,30.67,17,5,18,0.00
2013-11-30,51.3,44.4,39.4,33.9,32.5,29.6,70,63,50,30.15,30.08,2,0,5,0.00
2013-12-1,47.7,37.4,27.5,31.1,28.0,23.6,85,69,51,30.16,29.89,10,2,10,0.00
2013-12-2,61.5,44.3,31.1,37.7,33.2,26.9,90,68,38,29.89,29.54,15,3,15,0.00
2013-12-3,47.4,39.2,34.8,39.5,35.6,31.8,94,87,73,29.67,29.48,15,3,16,0.00
2013-12-4,36.5,24.8,16.9,34.7,21.3,9.6,96,87,72,30.09,29.61,22,6,22,0.00
2013-12-5,17.3,12.8,8.7,10.8,3.2,-3.0,75,65,56,30.52,30.08,23,5,23,0.00
2013-12-6,12.5,6.7,1.8,-1.1,-3.1,-5.8,75,64,52,30.79,30.51,14,4,14,0.00
2013-12-7,14.7,6.6,-3.0,2.3,-2.7,-7.5,81,66,49,30.86,30.50,12,3,12,0.00
2013-12-8,18.0,14.9,10.9,14.4,10.0,1.5,90,81,58,30.50,30.08,17,3,18,0.00
2013-12-9,11.0,5.5,0.1,8.1,1.7,-5.5,88,84,77,30.35,30.22,10,3,10,0.00
2013-12-10,26.0,19.5,14.3,15.5,9.9,5.4,71,66,62,30.34,30.19,10,6,12,0.00
2013-12-11,12.3,8.9,7.2,0.3,-1.8,-3.1,63,61,58,30.69,30.68,6,4,6,0.00
2013-12-18,57.9,49.2,40.1,33.5,31.1,29.1,66,50,37,29.83,29.73,15,2,20,0.00
2013-12-19,43.3,33.7,23.2,32.2,28.3,21.0,92,81,63,29.85,29.71,19,6,23,0.00
2013-12-20,23.2,17.7,14.8,21.0,14.8,12.1,91,88,85,30.01,29.85,21,4,21,0.00
2013-12-21,24.3,20.8,17.8,20.7,17.2,14.0,92,86,82,29.98,29.80,20,5,20,0.00
2013-12-22,21.8,17.5,9.2,19.8,13.1,3.0,92,83,74,30.45,29.89,16,5,16,0.00
2013-12-23,9.8,5.8,-2.1,3.8,-2.0,-7.4,79,70,55,30.69,30.44,14,3,14,0.00
2013-12-24,24.1,11.0,-4.0,22.4,6.2,-8.2,93,81,71,30.66,30.27,24,6,24,0.00
2013-12-25,41.2,29.1,20.3,30.3,22.9,16.9,93,79,57,30.36,30.27,17,4,17,0.00
2013-12-26,42.5,34.0,23.1,29.3,24.9,19.5,87,69,57,30.32,30.14,16,4,16,0.00
2013-12-27,51.4,39.1,25.6,32.4,27.1,20.1,83,63,44,30.29,30.11,19,4,19,0.00
2013-12-28,48.2,39.7,20.6,32.8,29.2,13.3,81,66,53,30.11,29.80,25,7,25,0.00
2013-12-29,20.6,10.1,4.5,13.2,-3.4,-10.4,75,55,33,30.41,30.09,21,5,22,0.00
2013-12-30,32.2,16.8,4.0,22.2,5.8,-6.5,76,62,51,30.40,30.16,18,5,18,0.00
2013-12-31,36.8,18.9,8.9,25.4,12.7,5.2,87,77,63,30.35,30.05,19,4,19,0.00
2014-1-1,13.7,8.9,2.7,9.0,4.4,-2.0,86,82,77,30.47,30.17,20,6,20,0.00
2014-1-2,8.7,3.9,-0.9,-0.3,-2.8,-6.1,82,73,56,30.58,30.45,12,2,12,0.00